Time;durP1;ratioP1;P1;durP2;ratioP2;P2;SDS_P1;SDS_P2;PMS_P1;PMS_P2;Temp;Humidity;BMP_temperature;BMP_pressure;BME280_temperature;BME280_humidity;BME280_pressure;Samples;Min_cycle;Max_cycle;Signal;HPM_P1;HPM_P2
2024/02/26 00:02:23;;;;;;;2.20;2.00;;;9.50;5.80;;;;;;5065630;28;20452;-80
2024/02/26 00:04:51;;;;;;;3.03;2.53;;;9.50;7.30;;;;;;5064605;28;20443;-80
2024/02/26 00:07:19;;;;;;;2.40;2.30;;;9.40;8.50;;;;;;5067353;28;20456;-81
2024/02/26 00:09:47;;;;;;;2.73;2.27;;;9.40;11.50;;;;;;5066985;28;20470;-80
2024/02/26 00:12:17;;;;;;;2.10;2.00;;;9.40;22.90;;;;;;5064931;28;20450;-81
2024/02/26 00:14:46;;;;;;;2.10;2.00;;;9.30;11.40;;;;;;5066524;28;20477;-79
2024/02/26 00:17:15;;;;;;;2.03;1.80;;;9.30;13.30;;;;;;5067488;28;20443;-80
2024/02/26 00:19:43;;;;;;;2.30;2.07;;;9.30;10.90;;;;;;5068893;28;20477;-79
2024/02/26 00:22:11;;;;;;;1.70;1.60;;;9.30;7.90;;;;;;5069423;28;20454;-81
2024/02/26 00:24:41;;;;;;;1.67;1.57;;;9.30;7.50;;;;;;5069238;28;20484;-81
2024/02/26 00:27:09;;;;;;;1.90;1.80;;;9.40;7.40;;;;;;5068358;28;20451;-80
2024/02/26 00:29:39;;;;;;;2.07;1.97;;;9.50;8.70;;;;;;5068116;28;20486;-80
2024/02/26 00:32:07;;;;;;;1.70;1.60;;;9.40;9.50;;;;;;5068731;28;20522;-81
2024/02/26 00:34:35;;;;;;;1.70;1.60;;;9.40;8.60;;;;;;5068228;28;21052;-83
2024/02/26 00:37:04;;;;;;;1.40;1.30;;;9.50;10.00;;;;;;5065822;28;20450;-82
2024/02/26 00:39:32;;;;;;;1.67;1.57;;;9.50;8.40;;;;;;5065759;28;20455;-82
2024/02/26 00:42:00;;;;;;;1.60;1.50;;;9.50;8.70;;;;;;5066758;28;20454;-82
2024/02/26 00:44:28;;;;;;;1.80;1.60;;;9.50;8.60;;;;;;5068357;28;20470;-83
2024/02/26 00:46:58;;;;;;;1.60;1.50;;;9.50;8.70;;;;;;5065751;28;20446;-83
2024/02/26 00:49:26;;;;;;;1.63;1.50;;;9.50;7.40;;;;;;5063376;28;20584;-83
2024/02/26 00:51:54;;;;;;;1.43;1.30;;;9.50;5.20;;;;;;5067679;28;20849;-83
2024/02/26 00:54:22;;;;;;;1.33;1.30;;;9.50;4.50;;;;;;5066076;28;20491;-83
2024/02/26 00:56:51;;;;;;;1.53;1.53;;;9.50;3.80;;;;;;5065471;28;20550;-83
2024/02/26 00:59:19;;;;;;;1.50;1.40;;;9.50;2.40;;;;;;5067978;28;20439;-82
2024/02/26 01:01:47;;;;;;;1.23;1.23;;;9.50;2.40;;;;;;5068043;28;20454;-82
2024/02/26 01:04:17;;;;;;;1.50;1.50;;;9.60;3.70;;;;;;5068616;28;20471;-82
2024/02/26 01:06:45;;;;;;;1.47;1.20;;;9.60;4.50;;;;;;5069106;28;20445;-81
2024/02/26 01:09:13;;;;;;;1.30;1.30;;;9.60;3.70;;;;;;5067243;28;21004;-81
2024/02/26 01:11:42;;;;;;;1.40;1.40;;;9.50;3.50;;;;;;5069465;28;20457;-82
2024/02/26 01:14:10;;;;;;;1.30;1.30;;;9.60;4.70;;;;;;5069393;28;20514;-81
2024/02/26 01:16:38;;;;;;;1.30;1.20;;;9.60;4.40;;;;;;5069163;28;20461;-81
2024/02/26 01:19:06;;;;;;;1.40;1.30;;;9.60;2.50;;;;;;5068146;28;20455;-81
2024/02/26 01:21:36;;;;;;;1.50;1.40;;;9.50;2.30;;;;;;5069770;28;20447;-82
2024/02/26 01:24:04;;;;;;;1.50;1.40;;;9.50;2.50;;;;;;5068197;28;20878;-82
2024/02/26 01:26:33;;;;;;;1.40;1.30;;;9.60;3.40;;;;;;5069671;28;20538;-82
2024/02/26 01:29:01;;;;;;;1.20;1.20;;;9.70;4.20;;;;;;5069688;28;20489;-81
2024/02/26 01:31:29;;;;;;;1.40;1.30;;;9.60;3.20;;;;;;5066578;28;20455;-83
2024/02/26 01:33:58;;;;;;;1.93;1.70;;;9.70;4.10;;;;;;5064291;28;20469;-81
2024/02/26 01:36:26;;;;;;;1.60;1.50;;;9.60;3.50;;;;;;5066221;28;20442;-80
2024/02/26 01:38:56;;;;;;;1.30;1.20;;;9.60;3.30;;;;;;5069273;28;21076;-80
2024/02/26 01:41:24;;;;;;;1.57;1.47;;;9.50;2.50;;;;;;5072868;28;20510;-80
2024/02/26 01:43:52;;;;;;;1.60;1.60;;;9.50;13.00;;;;;;5076397;28;20468;-80
2024/02/26 01:46:21;;;;;;;1.30;1.20;;;9.50;2.80;;;;;;5076482;28;20477;-80
2024/02/26 01:48:50;;;;;;;1.40;1.30;;;9.50;2.50;;;;;;5073560;28;20478;-80
2024/02/26 01:51:19;;;;;;;1.60;1.50;;;9.50;2.30;;;;;;5074536;28;20445;-81
2024/02/26 01:53:47;;;;;;;1.50;1.40;;;9.50;2.50;;;;;;5075907;28;20481;-82
2024/02/26 01:56:19;;;;;;;1.43;1.33;;;9.50;2.50;;;;;;5077161;28;20446;-80
2024/02/26 01:58:47;;;;;;;1.87;1.50;;;9.60;3.10;;;;;;5077713;28;21512;-81
2024/02/26 02:01:19;;;;;;;1.50;1.40;;;9.70;2.10;;;;;;5076474;28;20456;-80
2024/02/26 02:03:47;;;;;;;1.20;1.20;;;9.70;1.90;;;;;;5074289;28;20484;-81
2024/02/26 02:06:16;;;;;;;1.30;1.20;;;9.80;4.30;;;;;;5073851;28;20446;-81
2024/02/26 02:08:44;;;;;;;1.20;1.20;;;9.80;8.00;;;;;;5072642;28;20457;-81
2024/02/26 02:11:14;;;;;;;1.47;1.37;;;9.80;8.80;;;;;;5074768;28;21242;-81
2024/02/26 02:13:44;;;;;;;1.10;1.10;;;9.80;11.10;;;;;;5071853;28;20568;-81
2024/02/26 02:16:12;;;;;;;1.10;1.10;;;9.90;17.30;;;;;;5071166;28;20451;-80
2024/02/26 02:18:40;;;;;;;1.00;1.00;;;9.80;19.60;;;;;;5072783;28;20450;-82
2024/02/26 02:21:11;;;;;;;1.10;1.10;;;9.80;23.10;;;;;;5071890;28;20441;-81
2024/02/26 02:23:40;;;;;;;1.23;1.17;;;9.80;24.60;;;;;;5071745;28;20468;-79
2024/02/26 02:26:08;;;;;;;2.83;1.10;;;9.80;25.50;;;;;;5071889;28;20438;-81
2024/02/26 02:28:36;;;;;;;1.00;1.00;;;9.80;33.30;;;;;;5071626;28;20552;-81
2024/02/26 02:31:05;;;;;;;1.10;1.10;;;9.90;27.30;;;;;;5069760;28;20787;-81
2024/02/26 02:33:34;;;;;;;1.00;1.00;;;9.90;26.90;;;;;;5071140;28;20553;-82
2024/02/26 02:36:02;;;;;;;1.10;1.10;;;10.00;26.00;;;;;;5070416;28;20455;-81
2024/02/26 02:38:33;;;;;;;1.20;1.20;;;10.00;24.50;;;;;;5073164;28;20459;-82
2024/02/26 02:41:01;;;;;;;1.30;1.30;;;10.00;23.60;;;;;;5070901;28;20878;-81
2024/02/26 02:43:30;;;;;;;1.17;1.17;;;9.90;22.90;;;;;;5072640;28;20532;-82
2024/02/26 02:45:58;;;;;;;1.73;1.13;;;9.90;21.60;;;;;;5070272;28;20435;-81
2024/02/26 02:48:26;;;;;;;1.40;1.20;;;9.80;18.10;;;;;;5070912;28;20965;-81
2024/02/26 02:50:54;;;;;;;1.30;1.30;;;9.80;18.40;;;;;;5069189;28;20497;-79
2024/02/26 02:53:22;;;;;;;1.20;1.20;;;9.80;17.30;;;;;;5073425;28;20471;-82
2024/02/26 02:55:52;;;;;;;1.90;1.20;;;9.90;18.10;;;;;;5070986;28;21036;-81
2024/02/26 02:58:20;;;;;;;1.30;1.30;;;9.80;14.90;;;;;;5068007;28;20458;-81
2024/02/26 03:00:49;;;;;;;1.67;1.10;;;9.70;15.50;;;;;;5065985;28;20452;-81
2024/02/26 03:03:17;;;;;;;1.20;1.20;;;9.80;16.30;;;;;;5067851;28;20470;-82
2024/02/26 03:05:45;;;;;;;1.20;1.20;;;9.80;18.70;;;;;;5071394;28;20804;-82
2024/02/26 03:08:13;;;;;;;1.67;1.57;;;10.00;21.50;;;;;;5067191;28;20447;-82
2024/02/26 03:10:43;;;;;;;1.00;1.00;;;10.00;21.00;;;;;;5069929;28;20470;-82
2024/02/26 03:13:13;;;;;;;1.03;1.03;;;10.00;22.90;;;;;;5069432;28;20459;-82
2024/02/26 03:15:41;;;;;;;4.10;1.10;;;10.00;25.60;;;;;;5068783;28;20527;-81
2024/02/26 03:18:09;;;;;;;1.10;1.10;;;9.90;29.20;;;;;;5070998;28;21870;-81
2024/02/26 03:20:37;;;;;;;1.10;1.10;;;9.90;33.20;;;;;;5067528;28;20455;-81
2024/02/26 03:23:06;;;;;;;1.10;1.10;;;9.90;33.50;;;;;;5066789;28;20517;-81
2024/02/26 03:25:34;;;;;;;1.10;1.10;;;9.90;36.70;;;;;;5069294;28;20537;-81
2024/02/26 03:28:02;;;;;;;1.53;1.43;;;9.90;36.20;;;;;;5069075;28;20451;-82
2024/02/26 03:30:32;;;;;;;1.20;1.20;;;9.80;33.30;;;;;;5068025;28;20466;-81
2024/02/26 03:33:00;;;;;;;1.20;1.10;;;9.80;35.00;;;;;;5068068;28;20470;-82
2024/02/26 03:35:28;;;;;;;1.10;1.10;;;9.80;37.80;;;;;;5070349;28;20816;-81
2024/02/26 03:37:56;;;;;;;1.20;1.20;;;9.80;38.90;;;;;;5069785;28;20482;-81
2024/02/26 03:40:24;;;;;;;1.20;1.20;;;9.80;42.90;;;;;;5065848;28;20453;-82
2024/02/26 03:42:53;;;;;;;1.30;1.30;;;9.70;49.20;;;;;;5069537;28;21025;-81
2024/02/26 03:45:22;;;;;;;1.10;1.10;;;9.60;54.20;;;;;;5069552;28;20451;-81
2024/02/26 03:47:51;;;;;;;1.30;1.20;;;9.60;51.90;;;;;;5068869;28;20491;-82
2024/02/26 03:50:19;;;;;;;1.43;1.30;;;9.60;70.40;;;;;;5070310;28;20490;-81
2024/02/26 03:52:48;;;;;;;1.30;1.30;;;9.70;53.30;;;;;;5067592;28;20555;-81
2024/02/26 03:55:18;;;;;;;1.37;1.20;;;9.60;54.30;;;;;;5066737;28;20550;-81
2024/02/26 03:57:46;;;;;;;1.10;1.10;;;9.60;51.00;;;;;;5069066;28;20449;-81
2024/02/26 04:00:15;;;;;;;1.20;1.20;;;9.60;46.70;;;;;;5068309;28;20532;-81
2024/02/26 04:02:43;;;;;;;1.30;1.30;;;9.60;46.20;;;;;;5071414;28;20457;-81
2024/02/26 04:05:13;;;;;;;1.23;1.23;;;9.60;46.30;;;;;;5070280;28;20482;-80
2024/02/26 04:07:41;;;;;;;1.10;1.10;;;9.60;46.00;;;;;;5071622;28;20453;-79
2024/02/26 04:10:09;;;;;;;1.10;1.10;;;9.70;48.50;;;;;;5069913;28;20477;-80
2024/02/26 04:12:40;;;;;;;1.17;1.17;;;9.70;54.30;;;;;;5062274;28;20541;-81
2024/02/26 04:15:09;;;;;;;1.17;1.17;;;9.70;60.70;;;;;;5071142;28;20462;-82
2024/02/26 04:17:39;;;;;;;1.30;1.20;;;9.60;67.30;;;;;;5068543;28;20493;-82
2024/02/26 04:20:09;;;;;;;1.20;1.20;;;9.60;66.50;;;;;;5066149;28;20447;-82
2024/02/26 04:22:39;;;;;;;1.10;1.10;;;9.50;62.70;;;;;;5065781;28;20443;-82
2024/02/26 04:25:07;;;;;;;1.23;1.17;;;9.60;61.50;;;;;;5063598;28;20462;-82
2024/02/26 04:27:36;;;;;;;1.73;1.10;;;9.60;60.60;;;;;;5063406;28;20505;-82
2024/02/26 04:30:05;;;;;;;1.20;1.20;;;9.60;60.30;;;;;;5063557;28;20469;-81
2024/02/26 04:32:34;;;;;;;1.20;1.20;;;9.50;61.90;;;;;;5063944;28;20458;-82
2024/02/26 04:35:02;;;;;;;1.30;1.20;;;9.40;58.70;;;;;;5065160;28;20464;-79
2024/02/26 04:37:31;;;;;;;1.43;1.37;;;9.30;57.80;;;;;;5066734;28;20443;-81
2024/02/26 04:40:02;;;;;;;1.23;1.23;;;9.30;56.60;;;;;;5062641;28;20457;-82
2024/02/26 04:42:30;;;;;;;1.37;1.17;;;9.40;55.20;;;;;;5065744;28;20954;-82
2024/02/26 04:44:59;;;;;;;1.20;1.20;;;9.40;53.20;;;;;;5065280;28;20458;-82
2024/02/26 04:47:27;;;;;;;1.23;1.23;;;9.40;70.10;;;;;;5064676;28;20438;-81
2024/02/26 04:49:55;;;;;;;1.10;1.10;;;9.50;52.20;;;;;;5065725;28;20469;-82
2024/02/26 04:52:24;;;;;;;1.23;1.23;;;9.50;49.10;;;;;;5066898;28;20472;-82
2024/02/26 04:54:52;;;;;;;1.20;1.20;;;9.50;48.40;;;;;;5065479;28;20960;-80
2024/02/26 04:57:22;;;;;;;1.23;1.20;;;9.50;48.10;;;;;;5066241;28;20501;-81
2024/02/26 04:59:50;;;;;;;1.50;1.40;;;9.40;47.10;;;;;;5066889;28;20462;-81
2024/02/26 05:02:19;;;;;;;1.20;1.20;;;9.30;46.80;;;;;;5061483;28;20459;-81
2024/02/26 05:04:47;;;;;;;1.60;1.50;;;9.40;47.00;;;;;;5063497;28;20536;-81
2024/02/26 05:07:17;;;;;;;1.20;1.20;;;9.30;48.10;;;;;;5064950;28;20812;-81
2024/02/26 05:09:46;;;;;;;1.23;1.23;;;9.30;48.30;;;;;;5069043;28;20546;-80
2024/02/26 05:12:14;;;;;;;1.30;1.30;;;9.30;51.50;;;;;;5063557;28;20550;-81
2024/02/26 05:14:43;;;;;;;1.40;1.30;;;9.30;51.70;;;;;;5065991;28;20750;-81
2024/02/26 05:17:12;;;;;;;1.40;1.40;;;9.30;54.40;;;;;;5066841;28;20459;-82
2024/02/26 05:19:40;;;;;;;1.40;1.40;;;9.30;53.90;;;;;;5062605;28;20534;-81
2024/02/26 05:22:08;;;;;;;1.57;1.53;;;9.30;54.80;;;;;;5065376;28;20457;-80
2024/02/26 05:24:38;;;;;;;1.90;1.80;;;9.30;57.60;;;;;;5063764;28;20488;-82
2024/02/26 05:27:07;;;;;;;1.60;1.50;;;9.40;68.30;;;;;;5076641;28;21274;-81
2024/02/26 05:29:35;;;;;;;1.60;1.50;;;9.40;72.10;;;;;;5073297;28;20451;-81
2024/02/26 05:32:06;;;;;;;1.80;1.70;;;9.40;70.00;;;;;;5068272;28;20472;-80
2024/02/26 05:34:35;;;;;;;1.57;1.50;;;9.40;69.30;;;;;;5074328;28;20502;-81
2024/02/26 05:37:03;;;;;;;1.60;1.50;;;9.30;71.30;;;;;;5069503;28;20447;-82
2024/02/26 05:39:31;;;;;;;1.30;1.30;;;9.30;72.40;;;;;;5075597;28;20438;-81
2024/02/26 05:42:00;;;;;;;1.50;1.43;;;9.30;77.90;;;;;;5071726;28;20446;-80
2024/02/26 05:44:28;;;;;;;1.60;1.50;;;9.30;76.70;;;;;;5075080;28;20470;-81
2024/02/26 05:46:56;;;;;;;1.70;1.60;;;9.20;84.00;;;;;;5074593;28;20488;-82
2024/02/26 05:49:26;;;;;;;3.50;1.97;;;9.20;88.10;;;;;;5073082;28;20466;-81
2024/02/26 05:51:54;;;;;;;3.10;1.60;;;9.20;92.00;;;;;;5068015;28;20527;-79
2024/02/26 05:54:22;;;;;;;1.50;1.40;;;9.20;97.50;;;;;;5083771;28;20506;-79
2024/02/26 05:56:51;;;;;;;1.73;1.63;;;9.10;99.90;;;;;;5069192;28;20480;-79
2024/02/26 05:59:20;;;;;;;1.60;1.50;;;9.00;99.90;;;;;;5067810;28;20450;-79
2024/02/26 06:01:48;;;;;;;1.63;1.50;;;8.90;99.90;;;;;;5066404;28;20447;-79
2024/02/26 06:04:17;;;;;;;1.90;1.80;;;8.90;99.90;;;;;;5068779;28;20469;-79
2024/02/26 06:06:46;;;;;;;1.70;1.60;;;8.90;99.90;;;;;;5065965;28;20461;-78
2024/02/26 06:09:15;;;;;;;1.50;1.50;;;8.90;99.90;;;;;;5065062;28;20473;-77
2024/02/26 06:11:43;;;;;;;1.73;1.63;;;8.90;99.90;;;;;;5062576;28;20563;-76
2024/02/26 06:14:13;;;;;;;2.03;1.90;;;8.90;99.90;;;;;;5066351;28;21094;-79
2024/02/26 06:16:41;;;;;;;1.80;1.70;;;8.90;99.90;;;;;;5064390;28;20539;-78
2024/02/26 06:19:09;;;;;;;1.73;1.63;;;8.90;99.90;;;;;;5066738;28;20449;-77
2024/02/26 06:21:40;;;;;;;2.30;1.77;;;8.90;99.90;;;;;;5069100;28;20443;-78
2024/02/26 06:24:10;;;;;;;1.80;1.70;;;8.90;99.90;;;;;;5067313;28;20466;-77
2024/02/26 06:26:38;;;;;;;1.60;1.50;;;8.80;99.90;;;;;;5065931;28;20458;-78
2024/02/26 06:29:06;;;;;;;1.60;1.60;;;8.80;99.90;;;;;;5064061;28;20460;-80
2024/02/26 06:31:34;;;;;;;1.77;1.67;;;8.80;99.90;;;;;;5067209;28;20501;-79
2024/02/26 06:34:03;;;;;;;2.00;1.90;;;8.80;99.90;;;;;;5063531;28;20473;-78
2024/02/26 06:36:33;;;;;;;1.80;1.70;;;8.70;99.90;;;;;;5065985;28;20454;-78
2024/02/26 06:39:01;;;;;;;2.00;1.90;;;8.70;99.90;;;;;;5067953;28;20445;-78
2024/02/26 06:41:30;;;;;;;1.80;1.70;;;8.70;99.90;;;;;;5069049;28;20479;-78
2024/02/26 06:43:59;;;;;;;2.00;1.90;;;8.70;99.90;;;;;;5068244;28;20486;-78
2024/02/26 06:46:28;;;;;;;2.33;2.13;;;8.80;99.90;;;;;;5068068;28;20463;-79
2024/02/26 06:48:56;;;;;;;2.60;2.40;;;8.80;99.90;;;;;;5067528;28;20498;-78
2024/02/26 06:51:25;;;;;;;2.50;2.17;;;8.80;99.90;;;;;;5069239;28;21025;-80
2024/02/26 06:53:53;;;;;;;2.43;2.23;;;8.90;99.90;;;;;;5067043;28;20473;-80
2024/02/26 06:56:21;;;;;;;2.10;2.00;;;8.90;99.90;;;;;;5064443;28;20532;-79
2024/02/26 06:58:51;;;;;;;1.90;1.80;;;8.90;99.90;;;;;;5064922;28;20491;-79
2024/02/26 07:01:19;;;;;;;2.27;2.07;;;9.00;99.90;;;;;;5066158;28;20532;-78
2024/02/26 07:03:47;;;;;;;2.10;2.00;;;9.10;99.90;;;;;;5064797;28;20484;-79
2024/02/26 07:06:16;;;;;;;2.40;2.30;;;9.00;99.90;;;;;;5065996;28;20446;-76
2024/02/26 07:08:44;;;;;;;2.70;2.57;;;9.10;99.90;;;;;;5066761;28;20747;-78
2024/02/26 07:11:13;;;;;;;2.93;2.40;;;9.10;99.90;;;;;;5066712;28;20451;-77
2024/02/26 07:13:41;;;;;;;2.73;2.40;;;9.10;99.90;;;;;;5068515;28;20510;-77
2024/02/26 07:16:11;;;;;;;4.60;4.20;;;9.20;99.90;;;;;;5066456;28;20485;-79
2024/02/26 07:18:40;;;;;;;4.37;3.80;;;9.10;99.90;;;;;;5065783;28;20491;-77
2024/02/26 07:21:09;;;;;;;4.40;4.00;;;9.20;99.90;;;;;;5066126;28;20446;-78
2024/02/26 07:23:37;;;;;;;4.70;4.30;;;9.20;99.90;;;;;;5068090;28;21033;-79
2024/02/26 07:26:05;;;;;;;5.70;5.10;;;9.20;99.90;;;;;;5067110;28;20468;-78
2024/02/26 07:28:33;;;;;;;3.60;3.30;;;9.30;99.90;;;;;;5067222;28;20449;-77
2024/02/26 07:31:02;;;;;;;4.40;4.00;;;9.20;99.90;;;;;;5064845;28;21196;-80
2024/02/26 07:33:32;;;;;;;3.17;2.97;;;9.30;99.90;;;;;;5065978;28;20479;-78
2024/02/26 07:36:00;;;;;;;3.57;3.27;;;9.30;99.90;;;;;;5066027;28;20462;-79
2024/02/26 07:38:29;;;;;;;3.10;2.90;;;9.30;99.90;;;;;;5066547;28;20455;-79
2024/02/26 07:41:09;;;;;;;2.70;2.50;;;9.20;99.90;;;;;;5066186;28;21057;-79
2024/02/26 07:43:38;;;;;;;2.63;2.43;;;9.20;99.90;;;;;;5066345;28;20559;-77
2024/02/26 07:46:06;;;;;;;3.00;2.20;;;9.20;99.90;;;;;;5064464;28;21280;-79
2024/02/26 07:48:36;;;;;;;1.40;1.40;;;9.30;99.90;;;;;;5067236;28;20469;-79
2024/02/26 07:51:05;;;;;;;1.77;1.60;;;9.30;99.90;;;;;;5066356;28;20462;-77
2024/02/26 07:53:33;;;;;;;1.50;1.40;;;9.20;99.90;;;;;;5065513;28;20561;-78
2024/02/26 07:56:03;;;;;;;1.50;1.50;;;9.30;99.90;;;;;;5066035;28;20515;-78
2024/02/26 07:58:33;;;;;;;1.60;1.50;;;9.50;99.90;;;;;;5065385;28;20816;-78
2024/02/26 08:01:01;;;;;;;1.90;1.80;;;9.50;99.90;;;;;;5062675;28;20479;-81
2024/02/26 08:03:29;;;;;;;1.60;1.60;;;9.50;99.90;;;;;;5062455;28;20506;-79
2024/02/26 08:05:59;;;;;;;2.07;1.97;;;9.40;99.90;;;;;;5061358;28;20464;-78
2024/02/26 08:08:30;;;;;;;1.80;1.70;;;9.50;99.90;;;;;;5066196;28;20581;-78
2024/02/26 08:10:58;;;;;;;1.93;1.50;;;9.60;99.90;;;;;;5065854;28;20446;-80
2024/02/26 08:13:27;;;;;;;2.57;1.60;;;9.60;99.90;;;;;;5063825;28;20568;-78
2024/02/26 08:15:55;;;;;;;1.90;1.80;;;9.50;99.90;;;;;;5063648;28;21057;-80
2024/02/26 08:18:23;;;;;;;2.30;2.10;;;9.60;99.90;;;;;;5064038;28;20452;-78
2024/02/26 08:20:52;;;;;;;1.90;1.80;;;9.70;99.90;;;;;;5066887;28;20512;-78
2024/02/26 08:23:22;;;;;;;1.50;1.50;;;9.80;99.90;;;;;;5066070;28;20574;-78
2024/02/26 08:25:51;;;;;;;1.50;1.40;;;9.70;99.90;;;;;;5066080;28;20458;-79
2024/02/26 08:28:19;;;;;;;1.50;1.50;;;9.80;99.90;;;;;;5064472;28;20447;-77
2024/02/26 08:30:48;;;;;;;1.70;1.60;;;9.80;99.90;;;;;;5066051;28;20816;-80
2024/02/26 08:33:16;;;;;;;1.90;1.70;;;9.70;99.90;;;;;;5063111;28;20479;-80
2024/02/26 08:35:45;;;;;;;1.73;1.67;;;9.70;99.90;;;;;;5063924;28;20453;-77
2024/02/26 08:38:13;;;;;;;1.33;1.33;;;9.80;99.90;;;;;;5063409;28;20450;-77
2024/02/26 08:40:43;;;;;;;1.43;1.33;;;9.70;99.90;;;;;;5066627;28;21207;-78
2024/02/26 08:43:11;;;;;;;3.10;2.90;;;9.70;99.90;;;;;;5063870;28;20558;-78
2024/02/26 08:45:39;;;;;;;1.23;1.20;;;9.80;99.90;;;;;;5062921;28;20449;-79
2024/02/26 08:48:08;;;;;;;1.60;1.50;;;9.80;99.90;;;;;;5056538;28;20454;-78
2024/02/26 08:50:37;;;;;;;1.63;1.50;;;9.90;99.90;;;;;;5063415;28;20990;-80
2024/02/26 08:53:05;;;;;;;1.77;1.67;;;9.80;99.90;;;;;;5066212;28;20478;-79
2024/02/26 08:55:35;;;;;;;1.70;1.60;;;9.60;99.90;;;;;;5066099;28;20499;-79
2024/02/26 08:58:04;;;;;;;1.40;1.40;;;9.50;99.90;;;;;;5065681;28;20615;-77
2024/02/26 09:00:33;;;;;;;1.83;1.73;;;9.60;99.90;;;;;;5064143;28;20479;-79
2024/02/26 09:03:01;;;;;;;1.67;1.60;;;9.70;99.90;;;;;;5064475;28;20917;-79
2024/02/26 09:05:32;;;;;;;1.87;1.73;;;9.80;99.90;;;;;;5067490;28;20447;-78
2024/02/26 09:08:01;;;;;;;4.17;1.70;;;9.80;99.90;;;;;;5060844;28;20478;-78
2024/02/26 09:10:29;;;;;;;1.80;1.70;;;9.80;99.90;;;;;;5067824;28;20512;-78
2024/02/26 09:12:57;;;;;;;2.07;1.97;;;9.90;99.90;;;;;;5063564;28;20491;-80
2024/02/26 09:15:27;;;;;;;1.90;1.90;;;9.90;99.90;;;;;;5047152;28;20513;-80
2024/02/26 09:17:55;;;;;;;1.40;1.40;;;9.90;99.90;;;;;;5055703;28;20546;-78
2024/02/26 09:20:24;;;;;;;1.60;1.50;;;9.90;99.90;;;;;;5061886;28;20460;-78
2024/02/26 09:22:53;;;;;;;1.87;1.77;;;9.90;99.90;;;;;;5065897;28;20471;-78
2024/02/26 09:25:21;;;;;;;1.67;1.67;;;9.90;99.90;;;;;;5062398;28;20455;-77
2024/02/26 09:27:50;;;;;;;1.60;1.50;;;10.00;99.90;;;;;;5062591;28;20453;-78
2024/02/26 09:30:18;;;;;;;1.50;1.50;;;10.00;99.90;;;;;;5065532;28;20455;-79
2024/02/26 09:32:49;;;;;;;1.70;1.60;;;10.10;99.90;;;;;;5062690;28;20446;-77
2024/02/26 09:35:17;;;;;;;2.10;2.00;;;10.20;99.90;;;;;;5062087;28;20534;-78
2024/02/26 09:37:46;;;;;;;2.27;2.17;;;10.30;99.90;;;;;;5066596;28;20458;-79
2024/02/26 09:40:14;;;;;;;1.90;1.80;;;10.40;99.90;;;;;;5065580;28;20449;-78
2024/02/26 09:42:45;;;;;;;1.93;1.83;;;10.50;99.90;;;;;;5063890;28;20451;-78
2024/02/26 09:45:19;;;;;;;1.87;1.77;;;11.00;99.90;;;;;;5062175;28;20548;-76
2024/02/26 09:47:49;;;;;;;1.60;1.60;;;11.50;99.90;;;;;;5065698;28;20443;-80
2024/02/26 09:50:22;;;;;;;2.10;2.00;;;11.80;99.90;;;;;;5054154;28;20555;-79
2024/02/26 09:52:52;;;;;;;2.20;2.10;;;12.20;99.90;;;;;;5046900;28;20577;-78
2024/02/26 09:55:21;;;;;;;1.63;1.63;;;12.50;99.90;;;;;;5063732;28;20453;-78
2024/02/26 09:57:52;;;;;;;1.57;1.50;;;12.50;99.90;;;;;;5063561;28;21346;-77
2024/02/26 10:00:22;;;;;;;1.60;1.50;;;12.30;99.90;;;;;;5063227;28;20953;-77
2024/02/26 10:02:52;;;;;;;1.40;1.40;;;12.20;99.90;;;;;;5065842;28;20909;-77
2024/02/26 10:05:22;;;;;;;1.50;1.50;;;12.20;99.90;;;;;;5062541;28;20482;-76
2024/02/26 10:07:51;;;;;;;1.50;1.50;;;12.30;99.90;;;;;;5062332;28;20461;-77
2024/02/26 10:10:20;;;;;;;1.50;1.40;;;12.40;99.90;;;;;;5065335;28;20545;-79
2024/02/26 10:12:48;;;;;;;1.40;1.40;;;12.90;99.90;;;;;;5066038;28;20527;-78
2024/02/26 10:15:16;;;;;;;1.50;1.50;;;13.30;99.90;;;;;;5069152;28;20896;-78
2024/02/26 10:17:45;;;;;;;1.43;1.43;;;13.80;99.90;;;;;;5067232;28;20462;-77
2024/02/26 10:20:17;;;;;;;1.50;1.40;;;14.30;99.90;;;;;;5066644;28;21912;-81
2024/02/26 10:22:46;;;;;;;1.50;1.40;;;14.20;99.90;;;;;;5066556;28;20458;-78
2024/02/26 10:25:15;;;;;;;1.30;1.30;;;14.10;99.90;;;;;;5064638;28;20529;-79
2024/02/26 10:27:43;;;;;;;1.50;1.40;;;13.80;99.90;;;;;;5067044;28;20466;-78
2024/02/26 10:30:18;;;;;;;1.30;1.30;;;13.50;99.90;;;;;;5067014;28;20442;-78
2024/02/26 10:32:47;;;;;;;1.40;1.40;;;13.30;99.90;;;;;;5062617;28;20462;-78
2024/02/26 10:35:18;;;;;;;1.40;1.30;;;13.20;99.90;;;;;;5064270;28;21032;-79
2024/02/26 10:37:48;;;;;;;1.40;1.40;;;12.70;97.30;;;;;;5069462;28;20468;-80
2024/02/26 10:40:17;;;;;;;7.30;1.70;;;12.80;97.70;;;;;;5067293;28;20529;-81
2024/02/26 10:42:46;;;;;;;1.30;1.30;;;13.00;99.90;;;;;;5068580;28;20449;-79
2024/02/26 10:45:14;;;;;;;1.63;1.53;;;13.00;98.60;;;;;;5063077;28;20540;-79
2024/02/26 10:47:43;;;;;;;1.40;1.40;;;13.10;99.90;;;;;;5067586;28;21222;-80
2024/02/26 10:50:16;;;;;;;1.70;1.60;;;13.20;99.90;;;;;;5066234;28;20453;-79
2024/02/26 10:52:46;;;;;;;1.60;1.50;;;13.60;99.90;;;;;;5067908;28;20465;-80
2024/02/26 10:55:19;;;;;;;1.50;1.40;;;13.90;99.90;;;;;;5066532;28;20479;-80
2024/02/26 10:57:51;;;;;;;1.57;1.50;;;14.10;99.90;;;;;;5064685;28;20455;-76
2024/02/26 11:00:20;;;;;;;1.80;1.70;;;14.80;99.90;;;;;;5066597;28;20452;-78
2024/02/26 11:02:49;;;;;;;2.20;1.40;;;15.50;99.90;;;;;;5068512;28;20457;-78
2024/02/26 11:05:18;;;;;;;1.93;1.83;;;16.50;99.90;;;;;;5063060;28;20458;-79
2024/02/26 11:07:51;;;;;;;1.70;1.60;;;17.70;99.90;;;;;;5067003;28;20461;-80
2024/02/26 11:10:19;;;;;;;2.00;1.90;;;18.60;99.90;;;;;;5066483;28;21210;-78
2024/02/26 11:12:50;;;;;;;2.27;2.03;;;19.70;99.90;;;;;;5067723;28;20482;-78
2024/02/26 11:15:20;;;;;;;2.20;2.00;;;18.80;99.90;;;;;;5065461;28;20463;-78
2024/02/26 11:17:49;;;;;;;2.50;2.30;;;18.70;99.90;;;;;;5064985;28;20954;-77
2024/02/26 11:20:20;;;;;;;1.80;1.70;;;18.50;99.90;;;;;;5063419;28;21027;-79
2024/02/26 11:22:50;;;;;;;1.60;1.50;;;18.00;99.90;;;;;;5065266;28;20478;-78
2024/02/26 11:25:19;;;;;;;1.20;1.20;;;16.60;91.20;;;;;;5067425;28;20446;-79
2024/02/26 11:27:52;;;;;;;1.30;1.30;;;16.10;85.00;;;;;;5063309;28;20453;-81
2024/02/26 11:30:22;;;;;;;1.30;1.30;;;15.90;85.50;;;;;;5066628;28;20444;-77
2024/02/26 11:32:52;;;;;;;1.60;1.50;;;15.70;83.00;;;;;;5066788;28;20452;-78
2024/02/26 11:35:21;;;;;;;1.30;1.30;;;15.40;78.30;;;;;;5064573;28;21017;-79
2024/02/26 11:38:01;;;;;;;1.43;1.43;;;15.20;77.70;;;;;;5065190;28;20457;-80
2024/02/26 11:40:29;;;;;;;1.80;1.53;;;14.70;68.80;;;;;;5066278;28;20449;-78
2024/02/26 11:42:57;;;;;;;1.40;1.40;;;14.20;79.30;;;;;;5066016;28;20486;-79
2024/02/26 11:45:52;;;;;;;1.70;1.60;;;13.80;57.50;;;;;;5064329;28;21059;-80
2024/02/26 11:48:25;;;;;;;1.90;1.60;;;13.60;57.40;;;;;;5061239;28;20463;-79
2024/02/26 11:50:53;;;;;;;1.47;1.47;;;13.60;59.10;;;;;;5065101;28;20463;-79
2024/02/26 11:53:27;;;;;;;1.80;1.70;;;13.50;59.20;;;;;;5062294;28;20475;-79
2024/02/26 11:56:21;;;;;;;1.80;1.70;;;13.50;60.80;;;;;;5059976;28;20477;-78
2024/02/26 11:58:50;;;;;;;1.60;1.50;;;13.50;62.40;;;;;;5064699;28;20474;-78
2024/02/26 12:01:38;;;;;;;1.60;1.50;;;13.40;60.20;;;;;;5062244;28;20442;-79
2024/02/26 12:04:08;;;;;;;1.47;1.40;;;13.10;57.00;;;;;;5066842;28;20479;-78
2024/02/26 12:06:44;;;;;;;1.97;1.57;;;13.00;56.30;;;;;;5057899;28;20533;-78
2024/02/26 12:09:14;;;;;;;4.43;1.50;;;13.00;57.40;;;;;;5062946;28;20526;-77
2024/02/26 12:11:43;;;;;;;1.40;1.30;;;13.00;57.50;;;;;;5064889;28;20472;-79
2024/02/26 12:14:12;;;;;;;1.40;1.40;;;12.90;57.90;;;;;;5063628;28;20471;-79
2024/02/26 12:16:42;;;;;;;1.80;1.70;;;12.80;56.40;;;;;;5060594;28;20948;-81
2024/02/26 12:19:11;;;;;;;1.60;1.50;;;12.80;56.90;;;;;;5063375;28;20889;-82
2024/02/26 12:21:40;;;;;;;1.60;1.50;;;12.80;59.00;;;;;;5058052;28;20492;-78
2024/02/26 12:24:14;;;;;;;1.50;1.40;;;12.90;59.70;;;;;;5064258;28;20496;-79
2024/02/26 12:26:43;;;;;;;2.00;1.30;;;12.90;60.00;;;;;;5062037;28;21227;-78
2024/02/26 12:29:11;;;;;;;1.50;1.50;;;12.90;60.60;;;;;;5064950;28;20484;-81
2024/02/26 12:31:41;;;;;;;1.73;1.60;;;13.00;61.70;;;;;;5065435;28;20482;-79
2024/02/26 12:34:10;;;;;;;1.43;1.30;;;13.10;63.00;;;;;;5063835;28;20476;-78
2024/02/26 12:36:40;;;;;;;1.80;1.30;;;13.10;62.30;;;;;;5063113;28;20481;-81
2024/02/26 12:39:09;;;;;;;1.50;1.40;;;13.10;63.50;;;;;;5063061;28;20457;-78
2024/02/26 12:41:41;;;;;;;1.80;1.70;;;13.30;67.10;;;;;;5062661;28;20447;-78
2024/02/26 12:44:09;;;;;;;1.40;1.30;;;13.40;69.70;;;;;;5063212;28;20534;-80
2024/02/26 12:46:37;;;;;;;1.40;1.30;;;13.50;73.20;;;;;;5067133;28;20457;-78
2024/02/26 12:49:06;;;;;;;1.30;1.30;;;13.50;73.00;;;;;;5066409;28;20459;-80
2024/02/26 12:51:36;;;;;;;1.40;1.30;;;13.60;74.30;;;;;;5066407;28;20451;-79
2024/02/26 12:54:04;;;;;;;1.33;1.30;;;13.70;76.50;;;;;;5063672;28;20538;-79
2024/02/26 12:56:33;;;;;;;1.20;1.20;;;13.70;77.70;;;;;;5070498;28;20473;-79
2024/02/26 12:59:04;;;;;;;1.30;1.20;;;13.70;78.10;;;;;;5070634;28;20530;-79
2024/02/26 13:01:33;;;;;;;1.10;1.10;;;13.80;79.20;;;;;;5065234;28;20499;-79
2024/02/26 13:04:06;;;;;;;1.20;1.20;;;13.70;76.80;;;;;;5063383;28;20468;-79
2024/02/26 13:06:35;;;;;;;2.50;1.40;;;13.60;77.00;;;;;;5064692;28;20447;-78